createdAt,value
2022-12-22T00:02:43.380Z,9.93
2022-12-22T00:05:44.035Z,10.13
2022-12-22T00:08:29.269Z,9.68
2022-12-22T00:11:14.087Z,10.75
2022-12-22T00:13:59.774Z,12.02
2022-12-22T00:16:49.776Z,13.02
2022-12-22T00:19:34.506Z,12.45
2022-12-22T00:22:31.243Z,11.70
2022-12-22T00:25:15.453Z,13.40
2022-12-22T00:28:00.106Z,12.07
2022-12-22T00:30:44.292Z,12.95
2022-12-22T00:33:29.454Z,10.95
2022-12-22T00:36:13.617Z,11.63
2022-12-22T00:38:58.124Z,11.63
2022-12-22T00:41:42.418Z,11.50
2022-12-22T00:44:26.532Z,11.80
2022-12-22T00:47:10.757Z,12.57
2022-12-22T00:49:54.839Z,12.57
2022-12-22T00:52:39.847Z,12.07
2022-12-22T00:55:30.183Z,12.43
2022-12-22T00:58:14.354Z,13.77
2022-12-22T01:00:58.707Z,12.55
2022-12-22T01:03:42.867Z,13.30
2022-12-22T01:06:27.718Z,12.35
2022-12-22T01:09:11.895Z,12.38
2022-12-22T01:11:56.202Z,12.93
2022-12-22T01:14:40.402Z,13.02
2022-12-22T01:17:24.998Z,12.48
2022-12-22T01:20:09.384Z,12.73
2022-12-22T01:22:53.683Z,12.35
2022-12-22T01:25:37.823Z,12.23
2022-12-22T01:28:22.620Z,13.13
2022-12-22T01:31:07.350Z,12.10
2022-12-22T01:33:51.625Z,12.77
2022-12-22T01:36:35.768Z,14.18
2022-12-22T01:39:20.608Z,10.38
2022-12-22T01:42:05.332Z,13.02
2022-12-22T01:44:49.725Z,12.10
2022-12-22T01:47:46.368Z,11.43
2022-12-22T01:50:43.856Z,10.82
2022-12-22T01:53:30.424Z,11.15
2022-12-22T01:56:15.579Z,11.07
2022-12-22T01:59:01.964Z,11.27
2022-12-22T02:01:47.739Z,11.15
2022-12-22T02:04:32.617Z,10.35
2022-12-22T02:07:22.335Z,11.70
2022-12-22T02:10:15.913Z,10.77
2022-12-22T02:13:04.018Z,10.38
2022-12-22T02:15:51.487Z,10.38
2022-12-22T02:18:54.708Z,9.50
2022-12-22T02:21:39.864Z,10.88
2022-12-22T02:24:30.214Z,9.77
2022-12-22T02:27:16.314Z,9.13
2022-12-22T02:30:11.716Z,10.02
2022-12-22T02:33:01.056Z,9.80
2022-12-22T02:36:02.552Z,10.05
2022-12-22T02:39:05.539Z,8.95
2022-12-22T02:41:49.822Z,9.65
2022-12-22T02:44:41.071Z,9.90
2022-12-22T02:47:31.003Z,9.55
2022-12-22T02:50:41.605Z,9.35
2022-12-22T02:53:26.563Z,9.65
2022-12-22T02:56:18.622Z,8.85
2022-12-22T02:59:02.946Z,9.45
2022-12-22T03:01:47.180Z,10.25
2022-12-22T03:04:31.606Z,9.07
2022-12-22T03:07:15.828Z,8.57
2022-12-22T03:10:00.005Z,7.88
2022-12-22T03:12:44.244Z,8.45
2022-12-22T03:15:28.467Z,8.23
2022-12-22T03:18:18.309Z,8.00
2022-12-22T03:21:02.474Z,7.90
2022-12-22T03:23:46.971Z,7.70
2022-12-22T03:26:12.710Z,7.32
2022-12-22T03:28:38.440Z,7.93
2022-12-22T03:31:05.438Z,8.38
2022-12-22T03:33:31.525Z,7.38
2022-12-22T03:35:58.014Z,8.70
2022-12-22T03:38:23.823Z,8.52
2022-12-22T03:40:49.583Z,9.48
2022-12-22T03:43:35.289Z,8.93
2022-12-22T03:46:19.498Z,10.35
2022-12-22T03:49:08.405Z,8.73
2022-12-22T03:51:35.040Z,8.98
2022-12-22T03:54:00.793Z,8.68
2022-12-22T03:56:27.002Z,8.02
2022-12-22T03:58:52.738Z,8.82
2022-12-22T04:01:18.633Z,8.25
2022-12-22T04:03:44.382Z,8.80
2022-12-22T04:06:10.094Z,11.15
2022-12-22T04:08:35.823Z,9.70
2022-12-22T04:11:20.220Z,8.40
2022-12-22T04:13:45.925Z,10.40
2022-12-22T04:16:11.704Z,9.68
2022-12-22T04:18:37.441Z,10.43
2022-12-22T04:21:03.240Z,8.90
2022-12-22T04:23:28.957Z,10.30
2022-12-22T04:25:54.803Z,11.13
2022-12-22T04:28:20.557Z,12.32
2022-12-22T04:30:48.195Z,10.23
2022-12-22T04:33:13.927Z,10.88
2022-12-22T04:35:39.660Z,10.00
2022-12-22T04:38:05.436Z,9.75
2022-12-22T04:40:31.150Z,10.43
2022-12-22T04:42:56.881Z,11.32
2022-12-22T04:45:22.599Z,9.82
2022-12-22T04:47:48.310Z,10.30
2022-12-22T04:50:14.108Z,12.40
2022-12-22T04:52:39.888Z,11.05
2022-12-22T04:55:05.987Z,11.32
2022-12-22T04:57:35.519Z,10.68
2022-12-22T05:00:06.387Z,12.55
2022-12-22T05:02:32.282Z,10.98
2022-12-22T05:04:58.034Z,10.77
2022-12-22T05:07:23.787Z,11.23
2022-12-22T05:09:49.583Z,10.73
2022-12-22T05:12:33.855Z,11.23
2022-12-22T05:14:59.567Z,10.90
2022-12-22T05:17:25.310Z,10.85
2022-12-22T05:19:51.044Z,10.43
2022-12-22T05:22:16.767Z,17.90
2022-12-22T05:24:42.517Z,13.35
2022-12-22T05:27:09.618Z,12.60
2022-12-22T05:29:35.373Z,13.52
2022-12-22T05:32:01.107Z,11.27
2022-12-22T05:34:26.948Z,10.02
2022-12-22T05:36:52.665Z,11.07
2022-12-22T05:39:18.726Z,10.18
2022-12-22T05:41:44.472Z,11.95
2022-12-22T05:44:10.257Z,11.63
2022-12-22T05:46:36.026Z,10.63
2022-12-22T05:49:01.817Z,12.68
2022-12-22T05:51:27.535Z,12.68
2022-12-22T05:53:53.257Z,11.18
2022-12-22T05:56:18.990Z,12.05
2022-12-22T05:58:44.741Z,12.25
2022-12-22T06:01:10.980Z,10.45
2022-12-22T06:03:36.897Z,10.68
2022-12-22T06:06:03.695Z,11.02
2022-12-22T06:08:29.512Z,11.00
2022-12-22T06:10:55.877Z,10.82
2022-12-22T06:13:22.122Z,11.20
2022-12-22T06:15:48.246Z,10.38
2022-12-22T06:18:13.992Z,10.38
2022-12-22T06:20:39.731Z,10.57
2022-12-22T06:23:05.462Z,10.98
2022-12-22T06:25:31.196Z,10.73
2022-12-22T06:27:56.954Z,10.40
2022-12-22T06:30:29.197Z,11.27
2022-12-22T06:38:26.743Z,9.30
2022-12-22T07:00:06.345Z,10.73
2022-12-22T07:02:33.532Z,11.07
2022-12-22T07:16:15.497Z,9.52
2022-12-22T07:21:31.414Z,9.10
2022-12-22T07:32:15.157Z,10.50
2022-12-22T22:56:23.844Z,11.10
2022-12-22T22:58:49.591Z,12.02
2022-12-22T23:01:15.333Z,10.73
2022-12-22T23:03:41.144Z,10.23
2022-12-22T23:06:08.167Z,10.77
2022-12-22T23:08:34.461Z,10.32
2022-12-22T23:11:00.559Z,11.85
2022-12-22T23:13:26.305Z,10.80
2022-12-22T23:15:56.059Z,9.30
2022-12-22T23:18:22.065Z,10.80
2022-12-22T23:20:47.853Z,8.90
2022-12-22T23:23:13.792Z,9.27
2022-12-22T23:25:44.004Z,9.85
2022-12-22T23:33:33.365Z,12.35
2022-12-22T23:36:01.128Z,10.25
2022-12-22T23:38:27.545Z,11.02
2022-12-22T23:41:00.159Z,10.43
2022-12-22T23:43:25.903Z,11.77
2022-12-22T23:45:51.653Z,9.02
2022-12-22T23:48:17.395Z,7.38
2022-12-22T23:50:46.576Z,7.82
2022-12-22T23:53:12.709Z,9.02
2022-12-22T23:55:42.406Z,10.77
2022-12-22T23:58:08.131Z,7.18
